createdAt,value
2023-02-01T00:01:55.765Z,99380.78
2023-02-01T00:04:27.910Z,99381.22
2023-02-01T00:06:57.511Z,99388.13
2023-02-01T00:09:27.246Z,99386.69
2023-02-01T00:12:00.393Z,99373.06
2023-02-01T00:14:30.098Z,99366.75
2023-02-01T00:16:59.650Z,99380.16
2023-02-01T00:19:31.755Z,99374.13
2023-02-01T00:22:01.406Z,99373.50
2023-02-01T00:24:31.048Z,99369.31
2023-02-01T00:27:00.609Z,99369.47
2023-02-01T00:29:30.250Z,99369.91
2023-02-01T00:31:59.880Z,99367.97
2023-02-01T00:34:31.985Z,99369.47
2023-02-01T00:37:01.627Z,99370.38
2023-02-01T00:39:31.224Z,99383.69
2023-02-01T00:42:00.766Z,99373.22
2023-02-01T00:44:34.265Z,99376.09
2023-02-01T00:47:04.370Z,99376.53
2023-02-01T00:49:36.519Z,99370.69
2023-02-01T00:52:06.403Z,99371.03
2023-02-01T00:54:37.854Z,99364.34
2023-02-01T00:57:07.399Z,99367.50
2023-02-01T00:59:36.935Z,99366.44
2023-02-01T01:02:06.594Z,99356.81
2023-02-01T01:04:38.746Z,99353.28
2023-02-01T01:07:08.341Z,99359.84
2023-02-01T01:09:38.439Z,99367.66
2023-02-01T01:12:08.007Z,99362.25
2023-02-01T01:14:37.524Z,99357.28
2023-02-01T01:17:07.366Z,99362.75
2023-02-01T01:19:39.619Z,99352.31
2023-02-01T01:22:09.278Z,99354.19
2023-02-01T01:24:38.987Z,99347.34
2023-02-01T01:27:08.622Z,99345.25
2023-02-01T01:29:38.177Z,99347.56
2023-02-01T01:32:07.834Z,99345.09
2023-02-01T01:34:40.125Z,99344.09
2023-02-01T01:37:10.063Z,99334.47
2023-02-01T01:39:39.660Z,99332.13
2023-02-01T01:42:09.719Z,99336.94
2023-02-01T01:45:00.419Z,99337.09
2023-02-01T01:47:35.565Z,99323.47
2023-02-01T01:50:12.691Z,99328.97
2023-02-01T01:52:44.990Z,99325.22
2023-02-01T01:55:15.283Z,99326.28
2023-02-01T01:57:49.765Z,99326.88
2023-02-01T02:00:23.096Z,99326.44
2023-02-01T02:03:01.017Z,99330.03
2023-02-01T02:05:33.984Z,99318.22
2023-02-01T02:08:04.216Z,99325.53
2023-02-01T02:10:47.127Z,99314.06
2023-02-01T02:13:17.907Z,99326.56
2023-02-01T02:16:00.748Z,99326.56
2023-02-01T02:18:41.344Z,99315.94
2023-02-01T02:21:21.350Z,99320.41
2023-02-01T02:24:29.293Z,99318.50
2023-02-01T02:27:24.070Z,99323.78
2023-02-01T02:30:14.070Z,99310.38
2023-02-01T02:33:19.593Z,99314.16
2023-02-01T02:35:57.691Z,99311.59
2023-02-01T02:38:36.440Z,99310.38
2023-02-01T02:41:37.331Z,99316.63
2023-02-01T02:44:27.958Z,99304.88
2023-02-01T02:47:16.463Z,99301.44
2023-02-01T02:50:08.545Z,99303.16
2023-02-01T02:52:55.644Z,99298.06
2023-02-01T02:55:26.982Z,99302.19
2023-02-01T02:58:11.575Z,99294.00
2023-02-01T03:00:55.365Z,99297.22
2023-02-01T03:03:37.478Z,99282.16
2023-02-01T03:06:17.144Z,99277.81
2023-02-01T03:08:47.097Z,99265.81
2023-02-01T03:11:18.569Z,99267.56
2023-02-01T03:13:50.982Z,99265.47
2023-02-01T03:16:27.400Z,99260.03
2023-02-01T03:19:01.835Z,99263.34
2023-02-01T03:21:41.648Z,99253.22
2023-02-01T03:24:16.972Z,99254.03
2023-02-01T03:26:55.064Z,99238.59
2023-02-01T03:29:30.225Z,99237.34
2023-02-01T03:31:59.902Z,99238.75
2023-02-01T03:34:29.851Z,99246.97
2023-02-01T03:37:06.599Z,99242.53
2023-02-01T03:39:40.598Z,99232.22
2023-02-01T03:42:16.503Z,99245.22
2023-02-01T03:44:53.702Z,99233.81
2023-02-01T03:47:27.329Z,99223.41
2023-02-01T03:50:01.131Z,99228.59
2023-02-01T03:52:39.020Z,99218.81
2023-02-01T03:55:11.136Z,99218.13
2023-02-01T03:57:47.055Z,99216.00
2023-02-01T04:00:23.221Z,99206.84
2023-02-01T04:02:54.011Z,99211.78
2023-02-01T04:05:24.357Z,99205.78
2023-02-01T04:08:02.514Z,99214.28
2023-02-01T04:10:32.338Z,99216.47
2023-02-01T04:13:01.911Z,99210.13
2023-02-01T04:15:31.441Z,99206.97
2023-02-01T04:18:00.972Z,99201.06
2023-02-01T04:20:30.720Z,99195.41
2023-02-01T04:23:03.569Z,99181.75
2023-02-01T04:25:33.234Z,99175.47
2023-02-01T04:28:03.104Z,99173.72
2023-02-01T04:30:32.689Z,99171.13
2023-02-01T04:33:04.663Z,99168.28
2023-02-01T04:35:34.437Z,99163.47
2023-02-01T04:38:06.807Z,99163.34
2023-02-01T04:40:38.532Z,99160.34
2023-02-01T04:43:09.108Z,99168.94
2023-02-01T04:45:38.704Z,99168.25
2023-02-01T04:48:08.751Z,99181.75
2023-02-01T04:50:38.279Z,99177.06
2023-02-01T04:53:10.485Z,99165.06
2023-02-01T04:55:40.019Z,99173.72
2023-02-01T04:58:09.561Z,99162.22
2023-02-01T05:00:39.096Z,99158.69
2023-02-01T05:03:08.956Z,99156.31
2023-02-01T05:05:38.478Z,99151.50
2023-02-01T05:08:10.627Z,99145.47
2023-02-01T05:10:40.143Z,99143.84
2023-02-01T05:13:22.301Z,99137.81
2023-02-01T05:15:53.772Z,99126.84
2023-02-01T05:18:23.449Z,99121.34
2023-02-01T05:20:53.022Z,99123.81
2023-02-01T05:23:25.150Z,99116.34
2023-02-01T05:25:54.705Z,99102.59
2023-02-01T05:28:24.265Z,99092.59
2023-02-01T05:30:53.896Z,99103.78
2023-02-01T05:33:23.512Z,99097.53
2023-02-01T05:35:53.191Z,99101.66
2023-02-01T05:38:25.342Z,99096.59
2023-02-01T05:40:54.881Z,99081.66
2023-02-01T05:43:24.432Z,99080.00
2023-02-01T05:45:55.917Z,99093.56
2023-02-01T05:48:25.877Z,99088.97
2023-02-01T05:50:55.452Z,99090.75
2023-02-01T05:53:27.600Z,99086.38
2023-02-01T05:55:57.153Z,99072.25
2023-02-01T05:58:26.892Z,99078.50
2023-02-01T06:00:56.703Z,99080.03
2023-02-01T06:03:26.306Z,99070.81
2023-02-01T06:05:55.944Z,99075.28
2023-02-01T06:08:28.339Z,99070.69
2023-02-01T06:11:01.799Z,99073.06
2023-02-01T06:13:34.275Z,99073.88
2023-02-01T06:16:05.870Z,99071.88
2023-02-01T06:18:35.477Z,99069.88
2023-02-01T06:21:05.138Z,99070.34
2023-02-01T06:23:37.328Z,99077.88
2023-02-01T06:26:08.985Z,99087.78
2023-02-01T06:28:39.813Z,99083.41
2023-02-01T06:31:10.766Z,99089.06
2023-02-01T06:33:40.794Z,99093.41
2023-02-01T06:36:14.037Z,99091.28
2023-02-01T06:38:46.197Z,99092.22
2023-02-01T06:41:15.730Z,99080.19
2023-02-01T06:43:46.633Z,99076.91
2023-02-01T06:46:17.098Z,99063.47
2023-02-01T06:48:47.108Z,99077.88
2023-02-01T06:51:24.648Z,99079.31
2023-02-01T06:53:56.939Z,99075.41
2023-02-01T06:56:26.922Z,99061.63
2023-02-01T06:58:56.875Z,99054.78
2023-02-01T07:01:26.438Z,99068.34
2023-02-01T07:03:55.966Z,99063.47
2023-02-01T07:06:25.588Z,99059.59
2023-02-01T07:08:58.327Z,99062.78
2023-02-01T07:11:29.157Z,99058.66
2023-02-01T07:13:58.733Z,99071.59
2023-02-01T07:16:28.469Z,99061.47
2023-02-01T07:18:58.041Z,99068.41
2023-02-01T07:21:28.816Z,99080.31
2023-02-01T07:24:01.767Z,99076.09
2023-02-01T07:26:31.808Z,99090.56
2023-02-01T07:29:01.781Z,99093.56
2023-02-01T07:31:31.358Z,99086.59
2023-02-01T07:34:01.870Z,99094.34
2023-02-01T07:36:31.396Z,99090.09
2023-02-01T07:39:03.726Z,99108.31
2023-02-01T07:41:33.310Z,99124.47
2023-02-01T07:44:02.891Z,99109.78
2023-02-01T07:46:32.420Z,99111.91
2023-02-01T07:49:01.985Z,99108.28
2023-02-01T07:51:31.572Z,99113.69
2023-02-01T07:54:03.771Z,99130.38
2023-02-01T07:56:33.283Z,99125.88
2023-02-01T07:59:02.817Z,99126.94
2023-02-01T08:01:32.964Z,99133.66
2023-02-01T08:04:04.166Z,99144.84
2023-02-01T08:06:35.623Z,99162.72
2023-02-01T08:09:08.765Z,99141.78
2023-02-01T08:11:38.943Z,99157.88
2023-02-01T08:14:09.359Z,99150.28
2023-02-01T08:16:40.339Z,99160.03
2023-02-01T08:19:09.921Z,99165.94
2023-02-01T08:21:42.371Z,99155.38
2023-02-01T08:24:14.496Z,99157.94
2023-02-01T08:26:44.125Z,99160.63
2023-02-01T08:29:14.887Z,99151.34
2023-02-01T08:31:44.834Z,99151.63
2023-02-01T08:34:14.415Z,99143.66
2023-02-01T08:36:44.553Z,99147.38
2023-02-01T08:39:16.867Z,99142.28
2023-02-01T08:42:06.534Z,99124.34
2023-02-01T08:44:36.205Z,99126.13
2023-02-01T08:47:06.397Z,99133.94
2023-02-01T08:49:35.967Z,99118.47
2023-02-01T08:52:14.422Z,99126.84
2023-02-01T08:54:47.586Z,99139.47
2023-02-01T08:57:17.202Z,99133.56
2023-02-01T08:59:47.172Z,99134.75
2023-02-01T09:02:17.682Z,99134.50
2023-02-01T09:04:47.325Z,99135.81
2023-02-01T09:07:17.844Z,99132.66
2023-02-01T09:09:50.184Z,99128.88
2023-02-01T09:12:19.708Z,99123.78
2023-02-01T09:14:49.655Z,99134.88
2023-02-01T09:17:19.229Z,99141.25
2023-02-01T09:19:48.842Z,99136.41
2023-02-01T09:22:18.571Z,99137.47
2023-02-01T09:24:50.806Z,99140.31
2023-02-01T09:27:20.341Z,99147.00
2023-02-01T09:29:53.324Z,99136.88
2023-02-01T09:32:23.368Z,99134.63
2023-02-01T09:34:53.548Z,99139.72
2023-02-01T09:37:23.757Z,99138.66
2023-02-01T09:39:55.901Z,99139.72
2023-02-01T09:42:41.014Z,99143.72
2023-02-01T09:45:22.530Z,99147.38
2023-02-01T09:47:57.677Z,99147.50
2023-02-01T09:50:35.153Z,99156.22
2023-02-01T09:53:08.796Z,99140.03
2023-02-01T09:55:47.337Z,99154.06
2023-02-01T09:58:20.244Z,99131.19
2023-02-01T10:00:55.564Z,99144.66
2023-02-01T10:03:27.715Z,99152.63
2023-02-01T10:06:24.220Z,99140.25
2023-02-01T10:09:24.205Z,99151.59
2023-02-01T10:12:16.993Z,99162.69
2023-02-01T10:15:00.302Z,99160.00
2023-02-01T10:17:48.961Z,99162.00
2023-02-01T10:20:27.455Z,99170.50
2023-02-01T10:23:31.244Z,99158.09
2023-02-01T10:26:12.858Z,99159.53
2023-02-01T10:28:47.926Z,99143.59
2023-02-01T10:31:18.597Z,99141.09
2023-02-01T10:33:50.582Z,99139.94
2023-02-01T10:36:25.606Z,99138.00
2023-02-01T10:38:55.263Z,99131.66
2023-02-01T10:41:26.745Z,99129.19
2023-02-01T10:44:02.320Z,99110.28
2023-02-01T10:46:32.018Z,99129.16
2023-02-01T10:49:07.534Z,99130.09
2023-02-01T10:51:46.900Z,99129.38
2023-02-01T10:54:21.595Z,99126.16
2023-02-01T10:56:54.497Z,99136.91
2023-02-01T10:59:28.782Z,99119.75
2023-02-01T11:02:04.575Z,99120.31
2023-02-01T11:04:37.008Z,99130.81
2023-02-01T11:07:12.474Z,99132.97
2023-02-01T11:09:43.971Z,99138.97
2023-02-01T11:12:28.761Z,99133.66
2023-02-01T11:15:06.718Z,99137.28
2023-02-01T11:17:38.526Z,99140.94
2023-02-01T11:20:18.837Z,99131.31
2023-02-01T11:22:53.051Z,99123.16
2023-02-01T11:25:23.605Z,99117.38
2023-02-01T11:27:55.866Z,99100.16
2023-02-01T11:30:36.723Z,99113.75
2023-02-01T11:33:08.998Z,99101.50
2023-02-01T11:35:41.745Z,99111.09
2023-02-01T11:38:19.649Z,99115.22
2023-02-01T11:40:49.216Z,99100.22
2023-02-01T11:43:26.461Z,99106.72
2023-02-01T11:46:03.826Z,99105.31
2023-02-01T11:48:35.448Z,99106.88
2023-02-01T11:51:27.881Z,99083.00
2023-02-01T11:54:11.890Z,99099.66
2023-02-01T11:56:50.510Z,99094.84
2023-02-01T11:59:34.306Z,99094.94
2023-02-01T12:02:30.913Z,99086.69
2023-02-01T12:05:18.205Z,99085.72
2023-02-01T12:08:01.277Z,99092.59
2023-02-01T12:10:42.716Z,99081.97
2023-02-01T12:13:22.435Z,99081.88
2023-02-01T12:16:02.967Z,99064.75
2023-02-01T12:18:59.692Z,99063.94
2023-02-01T12:21:49.014Z,99052.34
2023-02-01T12:24:43.416Z,99038.28
2023-02-01T12:27:31.443Z,99031.19
2023-02-01T12:30:14.508Z,99028.56
2023-02-01T12:32:58.959Z,99028.28
2023-02-01T12:35:47.964Z,99010.31
2023-02-01T12:38:29.741Z,99004.38
2023-02-01T12:41:11.970Z,98991.88
2023-02-01T12:43:48.972Z,98986.56
2023-02-01T12:46:22.775Z,98981.22
2023-02-01T12:48:59.942Z,98970.97
2023-02-01T12:51:38.345Z,98972.78
2023-02-01T12:54:15.420Z,98973.78
2023-02-01T12:56:48.690Z,98953.34
2023-02-01T12:59:24.688Z,98939.19
2023-02-01T13:02:00.277Z,98950.06
2023-02-01T13:04:35.668Z,98955.66
2023-02-01T13:07:16.812Z,98949.72
2023-02-01T13:09:53.479Z,98918.06
2023-02-01T13:12:29.683Z,98930.09
2023-02-01T13:15:04.353Z,98925.47
2023-02-01T13:17:36.457Z,98919.66
2023-02-01T13:20:10.671Z,98920.41
2023-02-01T13:22:44.861Z,98923.06
2023-02-01T13:25:17.798Z,98923.53
2023-02-01T13:27:47.508Z,98910.69
2023-02-01T13:30:27.225Z,98915.56
2023-02-01T13:33:52.324Z,98914.75
2023-02-01T13:36:38.394Z,98903.06
2023-02-01T13:39:46.071Z,98918.63
2023-02-01T13:42:19.905Z,98900.00
2023-02-01T13:44:52.483Z,98896.72
2023-02-01T13:47:31.808Z,98899.91
2023-02-01T13:50:05.622Z,98895.31
2023-02-01T13:52:42.280Z,98893.22
2023-02-01T13:55:31.647Z,98906.00
2023-02-01T13:58:14.016Z,98906.81
2023-02-01T14:00:45.091Z,98905.56
2023-02-01T14:03:20.425Z,98880.94
2023-02-01T14:06:20.196Z,98889.47
2023-02-01T14:09:15.517Z,98882.41
2023-02-01T14:11:50.237Z,98888.00
2023-02-01T14:14:44.449Z,98870.78
2023-02-01T14:17:37.220Z,98883.41
2023-02-01T14:20:57.441Z,98881.78
2023-02-01T14:23:35.638Z,98878.38
2023-02-01T14:26:20.257Z,98890.19
2023-02-01T14:28:56.790Z,98890.56
2023-02-01T14:31:41.434Z,98913.22
2023-02-01T14:34:23.727Z,98925.50
2023-02-01T14:37:09.437Z,98956.75
2023-02-01T14:39:56.075Z,98987.25
2023-02-01T14:42:30.303Z,99090.06
2023-02-01T14:45:37.473Z,99125.53
2023-02-01T14:48:37.289Z,99163.09
2023-02-01T14:51:10.137Z,99145.03
2023-02-01T14:53:41.048Z,99163.91
2023-02-01T14:56:14.343Z,99155.63
2023-02-01T14:58:46.670Z,99140.72
2023-02-01T15:01:26.481Z,99137.84
2023-02-01T15:04:08.615Z,99132.47
2023-02-01T15:06:42.026Z,99145.88
2023-02-01T15:09:14.687Z,99162.69
2023-02-01T15:12:03.539Z,99185.28
2023-02-01T15:14:35.563Z,99125.78
2023-02-01T15:17:23.105Z,99146.94
2023-02-01T15:19:59.721Z,99141.75
2023-02-01T15:22:30.971Z,99146.06
2023-02-01T15:25:02.867Z,99143.59
2023-02-01T15:27:34.687Z,99132.59
2023-02-01T15:30:09.626Z,99126.97
2023-02-01T15:32:43.773Z,99130.91
2023-02-01T15:35:44.333Z,99144.75
2023-02-01T15:38:35.129Z,99143.13
2023-02-01T15:41:08.599Z,99145.56
2023-02-01T15:43:41.590Z,99140.59
2023-02-01T15:46:13.933Z,99149.31
2023-02-01T15:48:49.514Z,99137.47
2023-02-01T15:51:22.134Z,99143.91
2023-02-01T15:53:55.168Z,99146.00
2023-02-01T15:56:31.832Z,99133.97
2023-02-01T15:59:04.298Z,99137.72
2023-02-01T16:01:34.126Z,99140.59
2023-02-01T16:04:20.445Z,99137.47
2023-02-01T16:06:52.927Z,99132.31
2023-02-01T16:09:24.818Z,99130.63
2023-02-01T16:12:00.306Z,99128.13
2023-02-01T16:14:30.702Z,99121.41
2023-02-01T16:17:01.957Z,99119.94
2023-02-01T16:19:34.619Z,99136.72
2023-02-01T16:22:04.165Z,99138.31
2023-02-01T16:24:34.244Z,99121.66
2023-02-01T16:27:04.009Z,99127.03
2023-02-01T16:29:33.524Z,99128.28
2023-02-01T16:32:04.476Z,99124.94
2023-02-01T16:34:36.959Z,99124.53
2023-02-01T16:37:07.287Z,99119.03
2023-02-01T16:39:36.849Z,99113.91
2023-02-01T16:42:14.560Z,99117.19
2023-02-01T16:44:44.503Z,99118.31
2023-02-01T16:47:18.291Z,99116.97
2023-02-01T16:49:51.539Z,99105.28
2023-02-01T16:52:23.736Z,99099.44
2023-02-01T16:54:53.885Z,99108.75
2023-02-01T16:57:26.907Z,99106.28
2023-02-01T16:59:56.503Z,99101.75
2023-02-01T17:02:26.447Z,99118.81
2023-02-01T17:04:58.643Z,99113.28
2023-02-01T17:07:28.449Z,99118.31
2023-02-01T17:09:58.486Z,99110.59
2023-02-01T17:12:30.677Z,99108.41
2023-02-01T17:15:00.887Z,99106.50
2023-02-01T17:17:38.684Z,99115.66
2023-02-01T17:20:23.710Z,99122.00
2023-02-01T17:22:53.882Z,99122.59
2023-02-01T17:25:26.471Z,99121.00
2023-02-01T17:27:56.099Z,99120.50
2023-02-01T17:30:25.663Z,99118.72
2023-02-01T17:32:56.924Z,99111.69
2023-02-01T17:35:31.322Z,99117.06
2023-02-01T17:38:00.972Z,99109.97
2023-02-01T17:40:31.720Z,99119.59
2023-02-01T17:43:01.298Z,99126.66
2023-02-01T17:45:40.571Z,99124.56
2023-02-01T17:48:11.234Z,99132.06
2023-02-01T17:50:44.068Z,99131.59
2023-02-01T17:53:14.194Z,99124.19
2023-02-01T17:55:46.267Z,99137.91
2023-02-01T17:58:17.687Z,99133.72
2023-02-01T18:00:49.053Z,99131.59
2023-02-01T18:03:27.683Z,99123.06
2023-02-01T18:06:01.498Z,99128.88
2023-02-01T18:08:33.833Z,99126.91
2023-02-01T18:11:04.681Z,99131.97
2023-02-01T18:13:34.940Z,99136.94
2023-02-01T18:16:04.735Z,99131.00
2023-02-01T18:18:34.464Z,99143.00
2023-02-01T18:21:06.795Z,99142.97
2023-02-01T18:23:36.380Z,99140.34
2023-02-01T18:26:06.860Z,99138.38
2023-02-01T18:28:36.481Z,99134.03
2023-02-01T18:31:08.510Z,99150.25
2023-02-01T18:33:38.182Z,99142.31
2023-02-01T18:36:15.602Z,99138.63
2023-02-01T18:38:45.214Z,99137.19
2023-02-01T18:41:17.804Z,99133.38
2023-02-01T18:43:47.427Z,99131.66
2023-02-01T18:46:17.109Z,99129.09
2023-02-01T18:48:47.235Z,99131.50
2023-02-01T18:51:21.429Z,99134.94
2023-02-01T18:53:51.716Z,99129.69
2023-02-01T18:56:21.376Z,99135.84
2023-02-01T18:58:50.981Z,99135.56
2023-02-01T19:01:22.345Z,99128.50
2023-02-01T19:03:56.256Z,99124.72
2023-02-01T19:06:35.883Z,99134.06
2023-02-01T19:09:05.587Z,99137.44
2023-02-01T19:11:35.108Z,99119.91
2023-02-01T19:14:04.667Z,99131.56
2023-02-01T19:16:36.160Z,99132.53
2023-02-01T19:19:05.780Z,99134.88
2023-02-01T19:21:37.927Z,99126.06
2023-02-01T19:24:08.360Z,99144.56
2023-02-01T19:26:38.127Z,99146.88
2023-02-01T19:29:07.815Z,99148.84
2023-02-01T19:31:37.398Z,99138.00
2023-02-01T19:34:06.958Z,99151.34
2023-02-01T19:36:42.596Z,99156.56
2023-02-01T19:39:12.404Z,99140.34
2023-02-01T19:41:41.978Z,99156.13
2023-02-01T19:44:11.506Z,99147.69
2023-02-01T19:46:41.478Z,99139.69
2023-02-01T19:49:12.221Z,99156.13
2023-02-01T19:51:45.156Z,99152.31
2023-02-01T19:54:15.141Z,99138.63
2023-02-01T19:56:45.526Z,99138.13
2023-02-01T19:59:15.486Z,99139.19
2023-02-01T20:01:44.436Z,99152.47
2023-02-01T20:04:14.019Z,99145.34
2023-02-01T20:06:49.027Z,99152.81
2023-02-01T20:09:19.843Z,99192.19
2023-02-01T20:11:50.187Z,99171.09
2023-02-01T20:14:20.085Z,99161.84
2023-02-01T20:16:50.372Z,99185.38
2023-02-01T20:19:19.945Z,99205.59
2023-02-01T20:21:52.234Z,99209.50
2023-02-01T20:24:21.847Z,99207.28
2023-02-01T20:26:52.667Z,99209.75
2023-02-01T20:29:22.979Z,99209.34
2023-02-01T20:31:52.545Z,99214.94
2023-02-01T20:34:22.699Z,99212.28
2023-02-01T20:36:54.811Z,99204.09
2023-02-01T20:39:24.390Z,99194.94
2023-02-01T20:41:54.007Z,99209.81
2023-02-01T20:44:23.535Z,99196.91
2023-02-01T20:46:53.141Z,99225.91
2023-02-01T20:49:23.036Z,99231.94
2023-02-01T20:51:57.847Z,99233.91
2023-02-01T20:54:27.499Z,99225.16
2023-02-01T20:56:57.312Z,99219.72
2023-02-01T20:59:27.054Z,99214.06
2023-02-01T21:01:56.701Z,99203.06
2023-02-01T21:04:29.589Z,99205.06
2023-02-01T21:07:03.126Z,99204.09
2023-02-01T21:09:32.771Z,99199.16
2023-02-01T21:12:02.368Z,99198.75
2023-02-01T21:14:32.333Z,99187.28
2023-02-01T21:17:01.920Z,99202.13
2023-02-01T21:19:42.762Z,99202.69
2023-02-01T21:22:16.685Z,99207.13
2023-02-01T21:24:46.256Z,99204.81
2023-02-01T21:27:16.679Z,99209.50
2023-02-01T21:29:46.265Z,99215.16
2023-02-01T21:32:15.983Z,99208.84
2023-02-01T21:34:45.501Z,99197.16
2023-02-01T21:37:17.579Z,99194.06
2023-02-01T21:39:47.327Z,99196.09
2023-02-01T21:42:18.244Z,99217.03
2023-02-01T21:44:49.385Z,99236.28
2023-02-01T21:47:21.302Z,99242.41
2023-02-01T21:49:55.570Z,99235.34
2023-02-01T21:52:28.504Z,99242.53
2023-02-01T21:54:59.817Z,99236.56
2023-02-01T21:57:29.911Z,99252.00
2023-02-01T22:00:00.194Z,99243.88
2023-02-01T22:02:30.560Z,99242.16
2023-02-01T22:05:00.408Z,99233.13
2023-02-01T22:07:32.516Z,99229.53
2023-02-01T22:10:02.466Z,99225.75
2023-02-01T22:12:32.010Z,99226.13
2023-02-01T22:15:01.577Z,99209.97
2023-02-01T22:17:31.534Z,99231.91
2023-02-01T22:20:01.041Z,99224.53
2023-02-01T22:22:33.244Z,99259.31
2023-02-01T22:25:02.751Z,99267.09
2023-02-01T22:28:30.914Z,99264.00
2023-02-01T22:30:22.560Z,99276.44
2023-02-01T22:32:52.064Z,99265.25
2023-02-01T22:35:21.920Z,99258.53
2023-02-01T22:37:54.796Z,99259.31
2023-02-01T22:40:24.469Z,99261.84
2023-02-01T22:42:54.052Z,99260.16
2023-02-01T22:45:23.757Z,99249.22
2023-02-01T22:47:53.573Z,99257.03
2023-02-01T22:50:23.070Z,99246.16
2023-02-01T22:52:55.149Z,99256.69
2023-02-01T22:55:24.969Z,99254.25
2023-02-01T22:57:54.657Z,99243.34
2023-02-01T23:00:25.063Z,99254.19
2023-02-01T23:02:54.713Z,99258.41
2023-02-01T23:05:25.136Z,99247.13
2023-02-01T23:07:57.360Z,99251.19
2023-02-01T23:10:27.273Z,99255.91
2023-02-01T23:12:56.800Z,99268.47
2023-02-01T23:15:26.475Z,99265.47
2023-02-01T23:17:56.095Z,99259.31
2023-02-01T23:20:25.881Z,99269.84
2023-02-01T23:22:57.955Z,99278.72
2023-02-01T23:25:27.563Z,99265.78
2023-02-01T23:27:57.251Z,99267.19
2023-02-01T23:30:27.099Z,99272.84
2023-02-01T23:32:56.916Z,99273.09
2023-02-01T23:35:26.587Z,99274.13
2023-02-01T23:37:58.807Z,99260.22
2023-02-01T23:40:28.327Z,99268.34
2023-02-01T23:43:10.158Z,99271.34
2023-02-01T23:45:39.706Z,99259.91
2023-02-01T23:48:09.337Z,99264.34
2023-02-01T23:50:38.881Z,99270.28
2023-02-01T23:53:10.976Z,99269.03
2023-02-01T23:55:40.477Z,99264.44
2023-02-01T23:58:10.333Z,99265.94
